Thursday, March 5, 2015, 5:25 PM EST

KIPT, Williamsport-lycoming County

Location: Montoursville, PA, United States Lat: 41.25
Local Time: 5:25 PM EST (22:25 GMT) Lon: -76.917
Time Zone: US/Eastern Elev: 528 ft

Show me the last for .
Show Decoded

2015-03-05 16:54 METAR KIPT 052154Z 34008KT 10SM BKN110 M06/M19 A3025 RMK AO2 SLP251 T10611189 =
2015-03-05 15:54 METAR KIPT 052054Z 32006KT 10SM OVC120 M06/M18 A3022 RMK AO2 SLP239 T10611183
                 55002 =
2015-03-05 14:54 METAR KIPT 051954Z 33008KT 6SM HZ BKN090 OVC110 M06/M18 A3020 =
2015-03-05 13:54 METAR KIPT 051854Z 32008KT 10SM OVC090 M07/M18 A3021 RMK AO2 SLP235 T10671178 =
2015-03-05 12:54 METAR KIPT 051754Z 30009KT 10SM OVC090 M07/M18 A3022 =
2015-03-05 11:54 METAR KIPT 051654Z 34010KT 10SM OVC070 M07/M17 A3022 RMK AO2 SLP240 T10671172 =
2015-03-05 10:54 METAR KIPT 051554Z 32010KT 10SM OVC100 M07/M17 A3021 =
2015-03-05 09:54 METAR KIPT 051454Z 34012KT 10SM OVC095 M07/M16 A3020 RMK AO2 SLP233 60000
                 T10671161 52010 =
2015-03-05 08:54 METAR KIPT 051354Z 34012G18KT 10SM SCT090 OVC110 M07/M15 A3020 RMK AO2 SLP232
                 T10671150 =
2015-03-05 07:54 METAR KIPT 051254Z 35007G18KT 10SM FEW028 OVC095 M06/M14 A3017 RMK AO2 UPE1158
                 SLP222 P0000 T10561139 =
2015-03-05 07:51 METAR KIPT 051251Z 35011G18KT 10SM SCT028 BKN090 OVC110 M06/M14 A3017 RMK AO2
                 UPE1158 P0000 =
2015-03-05 06:54 METAR KIPT 051154Z 01012G20KT 10SM UP BKN029 BKN036 OVC070 M04/M10 A3011 RMK AO2
                 UPB46 SLP203 P0000 60000 T10391100 10022 21039 52033 =
2015-03-05 05:54 METAR KIPT 051054Z AUTO 31012G18KT 10SM OVC070 M01/M09 A3009 RMK AO2 SLP194
                 T10111094 =
2015-03-05 04:54 METAR KIPT 050954Z AUTO 33011KT 10SM SCT037 SCT060 OVC110 M01/M09 A3004 =
2015-03-05 03:54 METAR KIPT 050854Z AUTO 30010KT 10SM OVC045 01/M07 A3002 RMK AO2 SLP169
                 T00111072 53019 =
2015-03-05 02:54 METAR KIPT 050754Z AUTO 29008KT 10SM BKN044 02/M07 A2997 RMK AO2 SLP154
                 T00171067 =
2015-03-05 01:54 METAR KIPT 050654Z AUTO 32008KT 10SM FEW044 OVC080 02/M06 A2998 RMK AO2 SLP156
                 T00221056 =
2015-03-05 00:54 METAR KIPT 050554Z AUTO 27008KT 10SM FEW042 SCT060 OVC080 02/M02 A2996 =
2015-03-04 23:54 METAR KIPT 050454Z AUTO 27008KT 10SM BKN033 OVC060 02/M02 A2995 RMK AO2 SLP146
                 T00221022 400331017 =
2015-03-04 22:54 METAR KIPT 050354Z AUTO 27008KT 10SM BKN050 BKN070 OVC095 03/M02 A2996 RMK AO2
                 SLP149 T00281017 =
2015-03-04 20:54 METAR KIPT 050154Z 28008KT 10SM BKN090 BKN110 03/M01 A2992 RMK AO2 SLP136
                 T00331011 =
2015-03-04 19:54 METAR KIPT 050054Z 28006KT 10SM BKN110 03/M01 A2991 RMK AO2 SLP133 T00331011 =
2015-03-04 18:54 METAR KIPT 042354Z 00000KT 6SM BR FEW050 SCT110 02/00 A2989 RMK AO2 SLP128
                 T00170000 10028 20017 53008 =
2015-03-04 17:54 METAR KIPT 042254Z 00000KT 4SM BR SCT028 BKN033 OVC055 02/00 A2988 RMK AO2
                 SLP123 T00170000 =

Support USWX by starting your Amazon purchase here.